sensor_id;sensor_type;location;lat;lon;timestamp;temperature;humidity
23671;DHT22;12012;51.998;7.614;2024-01-11T00:00:34;-5.80;23.70
23671;DHT22;12012;51.998;7.614;2024-01-11T00:03:00;-5.80;25.50
23671;DHT22;12012;51.998;7.614;2024-01-11T00:05:25;-5.80;25.10
23671;DHT22;12012;51.998;7.614;2024-01-11T00:07:51;-5.90;26.60
23671;DHT22;12012;51.998;7.614;2024-01-11T00:10:17;-5.90;26.80
23671;DHT22;12012;51.998;7.614;2024-01-11T00:12:42;-5.90;29.70
23671;DHT22;12012;51.998;7.614;2024-01-11T00:15:08;-5.90;32.40
23671;DHT22;12012;51.998;7.614;2024-01-11T00:17:34;-5.90;34.40
23671;DHT22;12012;51.998;7.614;2024-01-11T00:20:00;-5.90;36.30
23671;DHT22;12012;51.998;7.614;2024-01-11T00:22:26;-6.00;37.90
23671;DHT22;12012;51.998;7.614;2024-01-11T00:24:51;-6.00;40.50
23671;DHT22;12012;51.998;7.614;2024-01-11T00:27:17;-6.00;45.20
23671;DHT22;12012;51.998;7.614;2024-01-11T00:29:42;-6.00;48.30
23671;DHT22;12012;51.998;7.614;2024-01-11T00:32:08;-5.90;51.80
23671;DHT22;12012;51.998;7.614;2024-01-11T00:34:33;-5.90;54.60
23671;DHT22;12012;51.998;7.614;2024-01-11T00:37:01;-6.00;54.10
23671;DHT22;12012;51.998;7.614;2024-01-11T00:39:26;-6.00;55.30
23671;DHT22;12012;51.998;7.614;2024-01-11T00:41:52;-6.10;55.50
23671;DHT22;12012;51.998;7.614;2024-01-11T00:44:18;-6.10;56.00
23671;DHT22;12012;51.998;7.614;2024-01-11T00:46:43;-6.10;58.50
23671;DHT22;12012;51.998;7.614;2024-01-11T00:49:09;-6.10;66.00
23671;DHT22;12012;51.998;7.614;2024-01-11T00:51:34;-6.10;66.20
23671;DHT22;12012;51.998;7.614;2024-01-11T00:54:00;-6.10;67.00
23671;DHT22;12012;51.998;7.614;2024-01-11T00:56:25;-6.10;71.30
23671;DHT22;12012;51.998;7.614;2024-01-11T00:58:51;-6.20;73.20
23671;DHT22;12012;51.998;7.614;2024-01-11T01:01:17;-6.20;76.00
23671;DHT22;12012;51.998;7.614;2024-01-11T01:03:43;-6.20;85.40
23671;DHT22;12012;51.998;7.614;2024-01-11T01:06:08;-6.20;87.00
23671;DHT22;12012;51.998;7.614;2024-01-11T01:08:34;-6.30;86.50
23671;DHT22;12012;51.998;7.614;2024-01-11T01:10:59;-6.30;89.20
23671;DHT22;12012;51.998;7.614;2024-01-11T01:13:25;-6.30;90.10
23671;DHT22;12012;51.998;7.614;2024-01-11T01:15:51;-6.30;90.30
23671;DHT22;12012;51.998;7.614;2024-01-11T01:18:16;-6.40;90.00
23671;DHT22;12012;51.998;7.614;2024-01-11T01:20:42;-6.40;91.40
23671;DHT22;12012;51.998;7.614;2024-01-11T01:23:07;-6.40;93.90
23671;DHT22;12012;51.998;7.614;2024-01-11T01:25:33;-6.40;97.00
23671;DHT22;12012;51.998;7.614;2024-01-11T01:27:58;-6.40;99.90
23671;DHT22;12012;51.998;7.614;2024-01-11T01:30:26;-6.40;99.90
23671;DHT22;12012;51.998;7.614;2024-01-11T01:32:52;-6.40;99.90
23671;DHT22;12012;51.998;7.614;2024-01-11T01:35:17;-6.50;99.90
23671;DHT22;12012;51.998;7.614;2024-01-11T01:37:43;-6.50;99.90
23671;DHT22;12012;51.998;7.614;2024-01-11T01:40:09;-6.40;99.90
23671;DHT22;12012;51.998;7.614;2024-01-11T01:42:35;-6.40;99.90
23671;DHT22;12012;51.998;7.614;2024-01-11T01:45:00;-6.40;99.90
23671;DHT22;12012;51.998;7.614;2024-01-11T01:47:27;-6.40;99.90
23671;DHT22;12012;51.998;7.614;2024-01-11T01:49:53;-6.40;99.90
23671;DHT22;12012;51.998;7.614;2024-01-11T01:52:20;-6.40;99.90
23671;DHT22;12012;51.998;7.614;2024-01-11T01:54:47;-6.40;99.90
23671;DHT22;12012;51.998;7.614;2024-01-11T01:57:15;-6.30;99.90
23671;DHT22;12012;51.998;7.614;2024-01-11T01:59:42;-6.40;99.90
23671;DHT22;12012;51.998;7.614;2024-01-11T02:02:09;-6.40;99.90
23671;DHT22;12012;51.998;7.614;2024-01-11T02:04:36;-6.40;99.90
23671;DHT22;12012;51.998;7.614;2024-01-11T02:07:01;-6.40;99.90
23671;DHT22;12012;51.998;7.614;2024-01-11T02:09:28;-6.40;99.90
23671;DHT22;12012;51.998;7.614;2024-01-11T02:11:54;-6.50;99.90
23671;DHT22;12012;51.998;7.614;2024-01-11T02:14:20;-6.50;99.90
23671;DHT22;12012;51.998;7.614;2024-01-11T02:16:46;-6.50;99.90
23671;DHT22;12012;51.998;7.614;2024-01-11T02:19:13;-6.60;99.90
23671;DHT22;12012;51.998;7.614;2024-01-11T02:21:42;-6.60;99.90
23671;DHT22;12012;51.998;7.614;2024-01-11T02:24:07;-6.60;99.90
23671;DHT22;12012;51.998;7.614;2024-01-11T02:26:34;-6.70;99.90
23671;DHT22;12012;51.998;7.614;2024-01-11T02:28:59;-6.70;99.90
23671;DHT22;12012;51.998;7.614;2024-01-11T02:31:26;-6.70;99.90
23671;DHT22;12012;51.998;7.614;2024-01-11T02:33:52;-6.70;99.90
23671;DHT22;12012;51.998;7.614;2024-01-11T02:36:20;-6.70;99.90
23671;DHT22;12012;51.998;7.614;2024-01-11T02:38:46;-6.70;99.90
23671;DHT22;12012;51.998;7.614;2024-01-11T02:41:11;-6.70;99.90
23671;DHT22;12012;51.998;7.614;2024-01-11T02:43:39;-6.70;99.90
23671;DHT22;12012;51.998;7.614;2024-01-11T02:46:04;-6.60;99.90
23671;DHT22;12012;51.998;7.614;2024-01-11T02:48:30;-6.60;99.90
23671;DHT22;12012;51.998;7.614;2024-01-11T02:50:57;-6.60;99.90
23671;DHT22;12012;51.998;7.614;2024-01-11T02:53:22;-6.60;99.90
23671;DHT22;12012;51.998;7.614;2024-01-11T02:55:52;-6.60;99.90
23671;DHT22;12012;51.998;7.614;2024-01-11T02:58:17;-6.60;99.90
23671;DHT22;12012;51.998;7.614;2024-01-11T03:00:43;-6.70;99.90
23671;DHT22;12012;51.998;7.614;2024-01-11T03:03:08;-6.70;99.90
23671;DHT22;12012;51.998;7.614;2024-01-11T03:05:34;-6.70;99.90
23671;DHT22;12012;51.998;7.614;2024-01-11T03:07:59;-6.70;99.90
23671;DHT22;12012;51.998;7.614;2024-01-11T03:10:25;-6.70;99.90
23671;DHT22;12012;51.998;7.614;2024-01-11T03:12:51;-6.80;99.90
23671;DHT22;12012;51.998;7.614;2024-01-11T03:15:16;-6.70;99.90
23671;DHT22;12012;51.998;7.614;2024-01-11T03:17:42;-6.70;99.90
23671;DHT22;12012;51.998;7.614;2024-01-11T03:20:08;-6.70;99.90
23671;DHT22;12012;51.998;7.614;2024-01-11T03:22:34;-6.80;99.90
23671;DHT22;12012;51.998;7.614;2024-01-11T03:24:59;-6.80;99.90
23671;DHT22;12012;51.998;7.614;2024-01-11T03:27:25;-6.80;99.90
23671;DHT22;12012;51.998;7.614;2024-01-11T03:29:50;-6.80;99.90
23671;DHT22;12012;51.998;7.614;2024-01-11T03:32:16;-6.80;99.90
23671;DHT22;12012;51.998;7.614;2024-01-11T03:34:41;-6.80;99.90
23671;DHT22;12012;51.998;7.614;2024-01-11T03:37:07;-6.70;99.90
23671;DHT22;12012;51.998;7.614;2024-01-11T03:39:34;-6.70;99.90
23671;DHT22;12012;51.998;7.614;2024-01-11T03:41:59;-6.70;99.90
23671;DHT22;12012;51.998;7.614;2024-01-11T03:44:25;-6.70;99.90
23671;DHT22;12012;51.998;7.614;2024-01-11T03:46:50;-6.70;99.90
23671;DHT22;12012;51.998;7.614;2024-01-11T03:49:17;-6.60;99.90
23671;DHT22;12012;51.998;7.614;2024-01-11T03:51:42;-6.70;99.90
23671;DHT22;12012;51.998;7.614;2024-01-11T03:54:08;-6.70;99.90
23671;DHT22;12012;51.998;7.614;2024-01-11T03:56:33;-6.70;99.90
23671;DHT22;12012;51.998;7.614;2024-01-11T03:59:02;-6.70;99.90
23671;DHT22;12012;51.998;7.614;2024-01-11T04:01:27;-6.80;99.90
23671;DHT22;12012;51.998;7.614;2024-01-11T04:03:53;-6.70;99.90
23671;DHT22;12012;51.998;7.614;2024-01-11T04:06:22;-6.70;99.90
23671;DHT22;12012;51.998;7.614;2024-01-11T04:08:49;-6.70;99.90
23671;DHT22;12012;51.998;7.614;2024-01-11T04:11:16;-6.60;99.90
23671;DHT22;12012;51.998;7.614;2024-01-11T04:13:42;-6.70;99.90
23671;DHT22;12012;51.998;7.614;2024-01-11T04:16:07;-6.70;99.90
23671;DHT22;12012;51.998;7.614;2024-01-11T04:18:33;-6.70;99.90
23671;DHT22;12012;51.998;7.614;2024-01-11T04:20:59;-6.70;99.90
23671;DHT22;12012;51.998;7.614;2024-01-11T04:23:24;-6.70;99.90
23671;DHT22;12012;51.998;7.614;2024-01-11T04:25:50;-6.70;99.90
23671;DHT22;12012;51.998;7.614;2024-01-11T04:28:17;-6.70;99.90
23671;DHT22;12012;51.998;7.614;2024-01-11T04:30:43;-6.70;99.90
23671;DHT22;12012;51.998;7.614;2024-01-11T04:33:09;-6.60;99.90
23671;DHT22;12012;51.998;7.614;2024-01-11T04:35:34;-6.70;99.90
23671;DHT22;12012;51.998;7.614;2024-01-11T04:38:00;-6.60;99.90
23671;DHT22;12012;51.998;7.614;2024-01-11T04:40:26;-6.70;99.90
23671;DHT22;12012;51.998;7.614;2024-01-11T04:42:51;-6.70;99.90
23671;DHT22;12012;51.998;7.614;2024-01-11T04:45:17;-6.70;99.90
23671;DHT22;12012;51.998;7.614;2024-01-11T04:47:42;-6.70;99.90
23671;DHT22;12012;51.998;7.614;2024-01-11T04:50:09;-6.70;99.90
23671;DHT22;12012;51.998;7.614;2024-01-11T04:52:34;-6.70;99.90
23671;DHT22;12012;51.998;7.614;2024-01-11T04:55:00;-6.70;99.90
23671;DHT22;12012;51.998;7.614;2024-01-11T04:57:26;-6.80;99.90
23671;DHT22;12012;51.998;7.614;2024-01-11T04:59:51;-6.80;99.90
23671;DHT22;12012;51.998;7.614;2024-01-11T05:02:20;-6.80;99.90
23671;DHT22;12012;51.998;7.614;2024-01-11T05:04:46;-6.90;99.90
23671;DHT22;12012;51.998;7.614;2024-01-11T05:07:12;-6.80;99.90
23671;DHT22;12012;51.998;7.614;2024-01-11T05:09:37;-6.90;99.90
23671;DHT22;12012;51.998;7.614;2024-01-11T05:12:04;-6.90;99.90
23671;DHT22;12012;51.998;7.614;2024-01-11T05:14:30;-6.80;99.90
23671;DHT22;12012;51.998;7.614;2024-01-11T05:16:55;-6.80;99.90
23671;DHT22;12012;51.998;7.614;2024-01-11T05:19:21;-6.80;99.90
23671;DHT22;12012;51.998;7.614;2024-01-11T05:21:46;-6.80;99.90
23671;DHT22;12012;51.998;7.614;2024-01-11T05:24:12;-6.80;99.90
23671;DHT22;12012;51.998;7.614;2024-01-11T05:26:38;-6.80;99.90
23671;DHT22;12012;51.998;7.614;2024-01-11T05:29:03;-6.80;99.90
23671;DHT22;12012;51.998;7.614;2024-01-11T05:31:30;-6.80;99.90
23671;DHT22;12012;51.998;7.614;2024-01-11T05:33:55;-6.80;99.90
23671;DHT22;12012;51.998;7.614;2024-01-11T05:36:21;-6.80;99.90
23671;DHT22;12012;51.998;7.614;2024-01-11T05:38:47;-6.80;99.90
23671;DHT22;12012;51.998;7.614;2024-01-11T05:41:12;-6.80;99.90
23671;DHT22;12012;51.998;7.614;2024-01-11T05:43:39;-6.80;99.90
23671;DHT22;12012;51.998;7.614;2024-01-11T05:46:05;-6.80;99.90
23671;DHT22;12012;51.998;7.614;2024-01-11T05:48:32;-6.80;99.90
23671;DHT22;12012;51.998;7.614;2024-01-11T05:50:58;-6.70;99.90
23671;DHT22;12012;51.998;7.614;2024-01-11T05:53:23;-6.80;99.90
23671;DHT22;12012;51.998;7.614;2024-01-11T05:55:50;-6.70;99.90
23671;DHT22;12012;51.998;7.614;2024-01-11T05:58:15;-6.70;99.90
23671;DHT22;12012;51.998;7.614;2024-01-11T06:00:41;-6.70;99.90
23671;DHT22;12012;51.998;7.614;2024-01-11T06:03:07;-6.70;99.90
23671;DHT22;12012;51.998;7.614;2024-01-11T06:05:33;-6.70;99.90
23671;DHT22;12012;51.998;7.614;2024-01-11T06:07:58;-6.70;99.90
23671;DHT22;12012;51.998;7.614;2024-01-11T06:10:24;-6.70;99.90
23671;DHT22;12012;51.998;7.614;2024-01-11T06:12:50;-6.70;99.90
23671;DHT22;12012;51.998;7.614;2024-01-11T06:15:15;-6.70;99.90
23671;DHT22;12012;51.998;7.614;2024-01-11T06:17:41;-6.70;99.90
23671;DHT22;12012;51.998;7.614;2024-01-11T06:20:07;-6.70;99.90
23671;DHT22;12012;51.998;7.614;2024-01-11T06:22:32;-6.70;99.90
23671;DHT22;12012;51.998;7.614;2024-01-11T06:24:58;-6.70;99.90
23671;DHT22;12012;51.998;7.614;2024-01-11T06:27:25;-6.60;99.90
23671;DHT22;12012;51.998;7.614;2024-01-11T06:29:50;-6.60;99.90
23671;DHT22;12012;51.998;7.614;2024-01-11T06:32:16;-6.60;99.90
23671;DHT22;12012;51.998;7.614;2024-01-11T06:34:41;-6.60;99.90
23671;DHT22;12012;51.998;7.614;2024-01-11T06:37:11;-6.60;99.90
23671;DHT22;12012;51.998;7.614;2024-01-11T06:39:36;-6.60;99.90
23671;DHT22;12012;51.998;7.614;2024-01-11T06:42:02;-6.60;99.90
23671;DHT22;12012;51.998;7.614;2024-01-11T06:44:27;-6.60;99.90
23671;DHT22;12012;51.998;7.614;2024-01-11T06:46:53;-6.50;99.90
23671;DHT22;12012;51.998;7.614;2024-01-11T06:49:18;-6.50;99.90
23671;DHT22;12012;51.998;7.614;2024-01-11T06:51:44;-6.50;99.90
23671;DHT22;12012;51.998;7.614;2024-01-11T06:54:09;-6.50;99.90
23671;DHT22;12012;51.998;7.614;2024-01-11T06:56:35;-6.50;99.90
23671;DHT22;12012;51.998;7.614;2024-01-11T06:59:01;-6.50;99.90
23671;DHT22;12012;51.998;7.614;2024-01-11T07:01:26;-6.50;99.90
23671;DHT22;12012;51.998;7.614;2024-01-11T07:03:52;-6.60;99.90
23671;DHT22;12012;51.998;7.614;2024-01-11T07:06:17;-6.60;99.90
23671;DHT22;12012;51.998;7.614;2024-01-11T07:08:43;-6.60;99.90
23671;DHT22;12012;51.998;7.614;2024-01-11T07:11:09;-6.50;99.90
23671;DHT22;12012;51.998;7.614;2024-01-11T07:13:35;-6.50;99.90
23671;DHT22;12012;51.998;7.614;2024-01-11T07:16:01;-6.50;99.90
23671;DHT22;12012;51.998;7.614;2024-01-11T07:18:28;-6.50;99.90
23671;DHT22;12012;51.998;7.614;2024-01-11T07:20:56;-6.50;99.90
23671;DHT22;12012;51.998;7.614;2024-01-11T07:23:22;-6.50;99.90
23671;DHT22;12012;51.998;7.614;2024-01-11T07:25:47;-6.50;99.90
23671;DHT22;12012;51.998;7.614;2024-01-11T07:28:13;-6.50;99.90
23671;DHT22;12012;51.998;7.614;2024-01-11T07:30:38;-6.50;99.90
23671;DHT22;12012;51.998;7.614;2024-01-11T07:33:05;-6.50;99.90
23671;DHT22;12012;51.998;7.614;2024-01-11T07:35:30;-6.50;99.90
23671;DHT22;12012;51.998;7.614;2024-01-11T07:37:57;-6.50;99.90
23671;DHT22;12012;51.998;7.614;2024-01-11T07:40:22;-6.50;99.90
23671;DHT22;12012;51.998;7.614;2024-01-11T07:42:48;-6.40;99.90
23671;DHT22;12012;51.998;7.614;2024-01-11T07:45:15;-6.40;99.90
23671;DHT22;12012;51.998;7.614;2024-01-11T07:47:40;-6.40;99.90
23671;DHT22;12012;51.998;7.614;2024-01-11T07:50:07;-6.40;99.90
23671;DHT22;12012;51.998;7.614;2024-01-11T07:52:35;-6.30;99.90
23671;DHT22;12012;51.998;7.614;2024-01-11T07:55:00;-6.30;99.90
23671;DHT22;12012;51.998;7.614;2024-01-11T07:57:32;-6.30;99.90
23671;DHT22;12012;51.998;7.614;2024-01-11T07:59:58;-6.30;99.90
23671;DHT22;12012;51.998;7.614;2024-01-11T08:02:24;-6.20;99.90
23671;DHT22;12012;51.998;7.614;2024-01-11T08:04:50;-6.10;99.90
23671;DHT22;12012;51.998;7.614;2024-01-11T08:07:15;-6.10;99.90
23671;DHT22;12012;51.998;7.614;2024-01-11T08:09:41;-6.10;99.90
23671;DHT22;12012;51.998;7.614;2024-01-11T08:12:14;-6.10;99.90
23671;DHT22;12012;51.998;7.614;2024-01-11T08:14:40;-6.00;99.90
23671;DHT22;12012;51.998;7.614;2024-01-11T08:17:07;-6.00;99.90
23671;DHT22;12012;51.998;7.614;2024-01-11T08:19:33;-6.00;1.00
23671;DHT22;12012;51.998;7.614;2024-01-11T08:21:59;-6.00;1.00
23671;DHT22;12012;51.998;7.614;2024-01-11T08:24:25;-6.00;1.00
23671;DHT22;12012;51.998;7.614;2024-01-11T08:26:51;-6.00;1.00
23671;DHT22;12012;51.998;7.614;2024-01-11T08:29:16;-5.90;1.00
23671;DHT22;12012;51.998;7.614;2024-01-11T08:31:44;-5.80;1.00
23671;DHT22;12012;51.998;7.614;2024-01-11T08:34:10;-5.70;1.00
23671;DHT22;12012;51.998;7.614;2024-01-11T08:36:36;-5.60;1.00
23671;DHT22;12012;51.998;7.614;2024-01-11T08:39:04;-5.60;1.00
23671;DHT22;12012;51.998;7.614;2024-01-11T08:41:33;-5.50;1.00
23671;DHT22;12012;51.998;7.614;2024-01-11T08:43:59;-5.50;1.00
23671;DHT22;12012;51.998;7.614;2024-01-11T08:46:28;-5.40;1.00
23671;DHT22;12012;51.998;7.614;2024-01-11T08:48:56;-5.30;1.00
23671;DHT22;12012;51.998;7.614;2024-01-11T08:51:22;-5.30;1.00
23671;DHT22;12012;51.998;7.614;2024-01-11T08:53:48;-5.20;1.00
23671;DHT22;12012;51.998;7.614;2024-01-11T08:56:13;-5.20;1.00
23671;DHT22;12012;51.998;7.614;2024-01-11T08:58:41;-5.10;1.00
23671;DHT22;12012;51.998;7.614;2024-01-11T09:01:07;-5.10;1.00
23671;DHT22;12012;51.998;7.614;2024-01-11T09:03:37;-5.00;1.00
23671;DHT22;12012;51.998;7.614;2024-01-11T09:06:03;-5.00;1.00
23671;DHT22;12012;51.998;7.614;2024-01-11T09:08:29;-4.90;1.00
23671;DHT22;12012;51.998;7.614;2024-01-11T09:10:55;-4.80;1.00
23671;DHT22;12012;51.998;7.614;2024-01-11T09:13:21;-4.70;1.00
23671;DHT22;12012;51.998;7.614;2024-01-11T09:15:47;-4.70;1.00
23671;DHT22;12012;51.998;7.614;2024-01-11T09:18:12;-4.60;1.00
23671;DHT22;12012;51.998;7.614;2024-01-11T09:20:38;-4.50;1.00
23671;DHT22;12012;51.998;7.614;2024-01-11T09:23:03;-4.50;1.00
23671;DHT22;12012;51.998;7.614;2024-01-11T09:25:30;-4.40;1.00
23671;DHT22;12012;51.998;7.614;2024-01-11T09:27:55;-4.30;1.00
23671;DHT22;12012;51.998;7.614;2024-01-11T09:30:21;-4.20;1.00
23671;DHT22;12012;51.998;7.614;2024-01-11T09:32:46;-4.10;1.00
23671;DHT22;12012;51.998;7.614;2024-01-11T09:35:13;-4.10;1.00
23671;DHT22;12012;51.998;7.614;2024-01-11T09:37:38;-4.00;1.00
23671;DHT22;12012;51.998;7.614;2024-01-11T09:40:05;-3.90;1.00
23671;DHT22;12012;51.998;7.614;2024-01-11T09:42:39;-3.90;1.00
23671;DHT22;12012;51.998;7.614;2024-01-11T09:45:09;-3.80;1.00
23671;DHT22;12012;51.998;7.614;2024-01-11T09:47:36;-3.70;99.90
23671;DHT22;12012;51.998;7.614;2024-01-11T09:50:05;-3.60;99.90
23671;DHT22;12012;51.998;7.614;2024-01-11T09:52:31;-3.50;99.90
23671;DHT22;12012;51.998;7.614;2024-01-11T09:55:01;-3.40;99.90
23671;DHT22;12012;51.998;7.614;2024-01-11T09:57:29;-3.30;99.90
23671;DHT22;12012;51.998;7.614;2024-01-11T09:59:57;-3.20;99.90
23671;DHT22;12012;51.998;7.614;2024-01-11T10:02:24;-3.00;99.90
23671;DHT22;12012;51.998;7.614;2024-01-11T10:04:52;-2.70;99.90
23671;DHT22;12012;51.998;7.614;2024-01-11T10:07:22;-2.30;99.90
23671;DHT22;12012;51.998;7.614;2024-01-11T10:09:48;-1.90;99.90
23671;DHT22;12012;51.998;7.614;2024-01-11T10:12:15;-1.60;99.90
23671;DHT22;12012;51.998;7.614;2024-01-11T10:14:40;-1.20;99.90
23671;DHT22;12012;51.998;7.614;2024-01-11T10:17:06;-0.80;99.90
23671;DHT22;12012;51.998;7.614;2024-01-11T10:19:32;-0.40;99.90
23671;DHT22;12012;51.998;7.614;2024-01-11T10:21:58;0.00;99.90
23671;DHT22;12012;51.998;7.614;2024-01-11T10:24:24;0.40;99.90
23671;DHT22;12012;51.998;7.614;2024-01-11T10:27:00;0.80;99.90
23671;DHT22;12012;51.998;7.614;2024-01-11T10:29:33;1.20;99.90
23671;DHT22;12012;51.998;7.614;2024-01-11T10:31:59;1.50;99.90
23671;DHT22;12012;51.998;7.614;2024-01-11T10:34:24;1.50;99.90
23671;DHT22;12012;51.998;7.614;2024-01-11T10:36:53;1.50;99.90
23671;DHT22;12012;51.998;7.614;2024-01-11T10:39:24;1.50;99.90
23671;DHT22;12012;51.998;7.614;2024-01-11T10:42:17;1.40;99.90
23671;DHT22;12012;51.998;7.614;2024-01-11T10:44:46;1.30;99.90
23671;DHT22;12012;51.998;7.614;2024-01-11T10:47:14;1.20;99.90
23671;DHT22;12012;51.998;7.614;2024-01-11T10:49:42;1.10;99.90
23671;DHT22;12012;51.998;7.614;2024-01-11T10:52:11;1.10;99.90
23671;DHT22;12012;51.998;7.614;2024-01-11T10:54:39;1.00;99.90
23671;DHT22;12012;51.998;7.614;2024-01-11T10:57:05;0.90;99.90
23671;DHT22;12012;51.998;7.614;2024-01-11T10:59:34;0.90;99.90
23671;DHT22;12012;51.998;7.614;2024-01-11T11:02:05;0.80;99.90
23671;DHT22;12012;51.998;7.614;2024-01-11T11:04:38;0.80;99.90
23671;DHT22;12012;51.998;7.614;2024-01-11T11:07:06;0.80;99.90
23671;DHT22;12012;51.998;7.614;2024-01-11T11:09:34;0.80;99.90
23671;DHT22;12012;51.998;7.614;2024-01-11T11:12:01;0.80;99.90
23671;DHT22;12012;51.998;7.614;2024-01-11T11:14:28;0.80;99.90
23671;DHT22;12012;51.998;7.614;2024-01-11T11:16:54;0.80;99.90
23671;DHT22;12012;51.998;7.614;2024-01-11T11:19:20;0.90;99.90
23671;DHT22;12012;51.998;7.614;2024-01-11T11:21:47;0.90;99.90
23671;DHT22;12012;51.998;7.614;2024-01-11T11:24:13;0.80;99.90
23671;DHT22;12012;51.998;7.614;2024-01-11T11:26:39;0.80;99.90
23671;DHT22;12012;51.998;7.614;2024-01-11T11:29:05;0.80;99.90
23671;DHT22;12012;51.998;7.614;2024-01-11T11:31:41;0.80;99.90
23671;DHT22;12012;51.998;7.614;2024-01-11T11:34:07;0.70;99.90
23671;DHT22;12012;51.998;7.614;2024-01-11T11:36:33;0.70;99.90
23671;DHT22;12012;51.998;7.614;2024-01-11T11:39:00;0.60;99.90
23671;DHT22;12012;51.998;7.614;2024-01-11T11:41:27;0.60;99.90
23671;DHT22;12012;51.998;7.614;2024-01-11T11:43:52;0.60;99.90
23671;DHT22;12012;51.998;7.614;2024-01-11T11:46:19;0.50;99.90
23671;DHT22;12012;51.998;7.614;2024-01-11T11:48:48;0.50;99.90
23671;DHT22;12012;51.998;7.614;2024-01-11T11:53:42;0.40;99.90
23671;DHT22;12012;51.998;7.614;2024-01-11T11:56:09;0.40;99.90
23671;DHT22;12012;51.998;7.614;2024-01-11T11:58:36;0.40;99.90
23671;DHT22;12012;51.998;7.614;2024-01-11T12:01:03;0.30;99.90
23671;DHT22;12012;51.998;7.614;2024-01-11T12:03:30;0.30;99.90
23671;DHT22;12012;51.998;7.614;2024-01-11T12:06:10;0.30;99.90
23671;DHT22;12012;51.998;7.614;2024-01-11T12:08:42;0.30;99.90
23671;DHT22;12012;51.998;7.614;2024-01-11T12:11:07;0.30;99.90
23671;DHT22;12012;51.998;7.614;2024-01-11T12:13:33;0.30;99.90
23671;DHT22;12012;51.998;7.614;2024-01-11T12:15:59;0.30;99.90
23671;DHT22;12012;51.998;7.614;2024-01-11T12:18:25;0.20;99.90
23671;DHT22;12012;51.998;7.614;2024-01-11T12:20:51;0.20;99.90
23671;DHT22;12012;51.998;7.614;2024-01-11T12:23:18;0.10;99.90
23671;DHT22;12012;51.998;7.614;2024-01-11T12:25:44;0.10;99.90
23671;DHT22;12012;51.998;7.614;2024-01-11T12:28:10;0.10;99.90
23671;DHT22;12012;51.998;7.614;2024-01-11T12:30:35;0.10;99.90
23671;DHT22;12012;51.998;7.614;2024-01-11T12:33:02;0.10;99.90
23671;DHT22;12012;51.998;7.614;2024-01-11T12:35:28;0.20;99.90
23671;DHT22;12012;51.998;7.614;2024-01-11T12:38:00;0.20;99.90
23671;DHT22;12012;51.998;7.614;2024-01-11T12:40:29;0.30;1.00
23671;DHT22;12012;51.998;7.614;2024-01-11T12:42:57;0.20;1.00
23671;DHT22;12012;51.998;7.614;2024-01-11T12:45:24;0.30;1.00
23671;DHT22;12012;51.998;7.614;2024-01-11T12:47:51;0.30;1.00
23671;DHT22;12012;51.998;7.614;2024-01-11T12:50:17;0.40;1.00
23671;DHT22;12012;51.998;7.614;2024-01-11T12:52:43;0.30;1.00
23671;DHT22;12012;51.998;7.614;2024-01-11T12:55:18;0.40;1.00
23671;DHT22;12012;51.998;7.614;2024-01-11T12:57:44;0.40;1.00
23671;DHT22;12012;51.998;7.614;2024-01-11T13:00:11;0.40;1.00
23671;DHT22;12012;51.998;7.614;2024-01-11T13:02:37;0.50;1.00
23671;DHT22;12012;51.998;7.614;2024-01-11T13:05:03;0.50;1.00
23671;DHT22;12012;51.998;7.614;2024-01-11T13:07:30;0.50;1.00
23671;DHT22;12012;51.998;7.614;2024-01-11T13:09:55;0.50;1.00
23671;DHT22;12012;51.998;7.614;2024-01-11T13:12:21;0.50;1.00
23671;DHT22;12012;51.998;7.614;2024-01-11T13:14:48;0.50;1.00
23671;DHT22;12012;51.998;7.614;2024-01-11T13:17:13;0.50;1.00
23671;DHT22;12012;51.998;7.614;2024-01-11T13:19:39;0.50;1.00
23671;DHT22;12012;51.998;7.614;2024-01-11T13:22:05;0.50;1.00
23671;DHT22;12012;51.998;7.614;2024-01-11T13:24:31;0.50;1.00
23671;DHT22;12012;51.998;7.614;2024-01-11T13:26:56;0.50;1.00
23671;DHT22;12012;51.998;7.614;2024-01-11T13:29:22;0.50;1.00
23671;DHT22;12012;51.998;7.614;2024-01-11T13:31:47;0.50;63.50
23671;DHT22;12012;51.998;7.614;2024-01-11T13:34:13;0.50;64.20
23671;DHT22;12012;51.998;7.614;2024-01-11T13:36:39;0.50;50.90
23671;DHT22;12012;51.998;7.614;2024-01-11T13:39:05;0.50;4.70
23671;DHT22;12012;51.998;7.614;2024-01-11T13:41:33;0.50;1.00
23671;DHT22;12012;51.998;7.614;2024-01-11T13:43:59;0.50;14.70
23671;DHT22;12012;51.998;7.614;2024-01-11T13:46:24;0.50;50.10
23671;DHT22;12012;51.998;7.614;2024-01-11T13:48:50;0.50;66.70
23671;DHT22;12012;51.998;7.614;2024-01-11T13:51:15;0.50;99.90
23671;DHT22;12012;51.998;7.614;2024-01-11T13:53:41;0.50;68.90
23671;DHT22;12012;51.998;7.614;2024-01-11T13:56:07;0.60;99.90
23671;DHT22;12012;51.998;7.614;2024-01-11T13:58:32;0.60;99.90
23671;DHT22;12012;51.998;7.614;2024-01-11T14:00:58;0.50;99.90
23671;DHT22;12012;51.998;7.614;2024-01-11T14:03:23;0.60;99.90
23671;DHT22;12012;51.998;7.614;2024-01-11T14:05:49;0.50;99.90
23671;DHT22;12012;51.998;7.614;2024-01-11T14:08:15;0.60;99.90
23671;DHT22;12012;51.998;7.614;2024-01-11T14:10:41;0.60;99.90
23671;DHT22;12012;51.998;7.614;2024-01-11T14:13:06;0.60;99.90
23671;DHT22;12012;51.998;7.614;2024-01-11T14:15:32;0.60;99.90
23671;DHT22;12012;51.998;7.614;2024-01-11T14:17:57;0.50;99.90
23671;DHT22;12012;51.998;7.614;2024-01-11T14:20:23;0.50;99.90
23671;DHT22;12012;51.998;7.614;2024-01-11T14:22:49;0.50;1.00
23671;DHT22;12012;51.998;7.614;2024-01-11T14:25:16;0.40;99.90
23671;DHT22;12012;51.998;7.614;2024-01-11T14:27:42;0.40;99.90
23671;DHT22;12012;51.998;7.614;2024-01-11T14:30:08;0.30;99.90
23671;DHT22;12012;51.998;7.614;2024-01-11T14:32:34;0.30;99.90
23671;DHT22;12012;51.998;7.614;2024-01-11T14:35:00;0.30;42.50
23671;DHT22;12012;51.998;7.614;2024-01-11T14:37:36;0.30;1.50
23671;DHT22;12012;51.998;7.614;2024-01-11T14:40:03;0.30;1.00
23671;DHT22;12012;51.998;7.614;2024-01-11T14:42:29;0.30;52.60
23671;DHT22;12012;51.998;7.614;2024-01-11T14:44:55;0.30;99.90
23671;DHT22;12012;51.998;7.614;2024-01-11T14:47:21;0.30;99.90
23671;DHT22;12012;51.998;7.614;2024-01-11T14:49:47;0.20;99.90
23671;DHT22;12012;51.998;7.614;2024-01-11T14:52:13;0.20;99.90
23671;DHT22;12012;51.998;7.614;2024-01-11T14:54:39;0.20;99.90
23671;DHT22;12012;51.998;7.614;2024-01-11T14:57:05;0.20;95.90
23671;DHT22;12012;51.998;7.614;2024-01-11T14:59:33;0.20;24.80
23671;DHT22;12012;51.998;7.614;2024-01-11T15:02:00;0.20;5.70
23671;DHT22;12012;51.998;7.614;2024-01-11T15:04:26;0.20;99.90
23671;DHT22;12012;51.998;7.614;2024-01-11T15:06:52;0.20;99.90
23671;DHT22;12012;51.998;7.614;2024-01-11T15:09:17;0.20;99.90
23671;DHT22;12012;51.998;7.614;2024-01-11T15:11:43;0.20;7.60
23671;DHT22;12012;51.998;7.614;2024-01-11T15:14:09;0.20;1.00
23671;DHT22;12012;51.998;7.614;2024-01-11T15:16:36;0.20;99.90
23671;DHT22;12012;51.998;7.614;2024-01-11T15:19:02;0.20;99.90
23671;DHT22;12012;51.998;7.614;2024-01-11T15:21:27;0.20;99.90
23671;DHT22;12012;51.998;7.614;2024-01-11T15:23:54;0.20;1.00
23671;DHT22;12012;51.998;7.614;2024-01-11T15:26:20;0.20;99.90
23671;DHT22;12012;51.998;7.614;2024-01-11T15:28:45;0.20;1.00
23671;DHT22;12012;51.998;7.614;2024-01-11T15:31:12;0.20;1.00
23671;DHT22;12012;51.998;7.614;2024-01-11T15:33:38;0.20;99.90